createdAt,value
2022-12-20T00:01:35.216Z,67.40
2022-12-20T00:04:05.261Z,66.55
2022-12-20T00:06:33.797Z,64.93
2022-12-20T00:09:02.312Z,63.33
2022-12-20T00:11:30.002Z,66.45
2022-12-20T00:13:57.885Z,57.72
2022-12-20T00:16:29.326Z,68.40
2022-12-20T00:18:59.251Z,64.28
2022-12-20T00:21:26.851Z,67.75
2022-12-20T00:23:54.432Z,61.67
2022-12-20T00:26:24.550Z,56.80
2022-12-20T00:28:52.942Z,59.90
2022-12-20T00:31:21.025Z,61.30
2022-12-20T00:33:49.704Z,61.95
2022-12-20T00:36:18.163Z,64.65
2022-12-20T00:38:46.180Z,58.03
2022-12-20T00:41:19.140Z,62.03
2022-12-20T00:43:46.081Z,59.60
2022-12-20T00:46:13.849Z,62.15
2022-12-20T00:48:41.112Z,55.80
2022-12-20T00:51:10.892Z,59.42
2022-12-20T00:53:38.033Z,57.95
2022-12-20T00:56:05.652Z,57.13
2022-12-20T00:58:34.528Z,60.13
2022-12-20T01:01:01.273Z,55.97
2022-12-20T01:03:28.307Z,58.17
2022-12-20T01:06:00.758Z,55.10
2022-12-20T01:08:29.738Z,60.35
2022-12-20T01:11:19.890Z,60.58
2022-12-20T01:13:49.529Z,58.60
2022-12-20T01:16:23.997Z,52.92
2022-12-20T01:18:51.573Z,59.05
2022-12-20T01:21:20.374Z,55.35
2022-12-20T01:23:47.768Z,53.60
2022-12-20T01:26:18.253Z,53.08
2022-12-20T01:28:47.517Z,54.00
2022-12-20T01:31:16.854Z,55.80
2022-12-20T01:33:44.581Z,53.13
2022-12-20T01:36:14.119Z,65.68
2022-12-20T01:38:41.052Z,55.03
2022-12-20T01:41:08.266Z,52.90
2022-12-20T01:43:56.127Z,61.40
2022-12-20T01:46:25.816Z,60.03
2022-12-20T01:49:02.412Z,53.60
2022-12-20T01:51:32.076Z,54.08
2022-12-20T01:54:12.980Z,51.78
2022-12-20T01:56:45.548Z,55.58
2022-12-20T01:59:14.076Z,51.63
2022-12-20T02:01:43.101Z,52.20
2022-12-20T02:04:10.193Z,52.47
2022-12-20T02:06:36.957Z,51.58
2022-12-20T02:09:05.522Z,52.70
2022-12-20T02:11:38.317Z,54.40
2022-12-20T02:14:38.509Z,58.30
2022-12-20T02:17:20.277Z,61.20
2022-12-20T02:20:06.349Z,60.63
2022-12-20T02:22:55.143Z,58.30
2022-12-20T02:25:36.893Z,63.65
2022-12-20T02:28:33.840Z,57.83
2022-12-20T02:31:05.178Z,61.88
2022-12-20T02:33:31.952Z,64.68
2022-12-20T02:35:58.753Z,59.50
2022-12-20T02:38:38.254Z,60.97
2022-12-20T02:41:11.230Z,55.72
2022-12-20T02:44:00.392Z,56.70
2022-12-20T02:46:28.058Z,65.50
2022-12-20T02:49:00.431Z,60.25
2022-12-20T02:51:29.743Z,64.53
2022-12-20T02:53:58.754Z,62.08
2022-12-20T02:56:35.119Z,62.13
2022-12-20T02:59:24.674Z,65.95
2022-12-20T03:01:55.150Z,64.32
2022-12-20T03:04:27.695Z,62.75
2022-12-20T03:07:40.384Z,59.63
2022-12-20T03:10:07.617Z,57.88
2022-12-20T03:12:34.439Z,62.28
2022-12-20T03:15:01.208Z,63.80
2022-12-20T03:17:27.951Z,63.60
2022-12-20T03:19:54.696Z,60.55
2022-12-20T03:22:21.751Z,57.22
2022-12-20T03:24:48.471Z,64.38
2022-12-20T03:27:15.248Z,56.38
2022-12-20T03:29:42.044Z,60.83
2022-12-20T03:32:08.838Z,59.83
2022-12-20T03:34:35.598Z,57.53
2022-12-20T03:37:02.329Z,59.42
2022-12-20T03:39:29.193Z,56.13
2022-12-20T03:41:56.058Z,52.65
2022-12-20T03:44:22.985Z,105.10
2022-12-20T03:46:56.099Z,67.05
2022-12-20T03:49:22.833Z,61.53
2022-12-20T03:51:49.628Z,49.03
2022-12-20T03:54:16.396Z,50.42
2022-12-20T03:56:43.176Z,50.50
2022-12-20T03:59:09.897Z,58.47
2022-12-20T04:01:38.787Z,51.55
2022-12-20T04:04:06.052Z,53.75
2022-12-20T04:06:32.876Z,54.17
2022-12-20T04:08:59.676Z,63.97
2022-12-20T04:11:26.492Z,56.10
2022-12-20T04:13:54.376Z,58.15
2022-12-20T04:16:24.472Z,63.47
2022-12-20T04:18:51.546Z,57.10
2022-12-20T04:21:38.596Z,56.88
2022-12-20T04:24:06.432Z,60.75
2022-12-20T04:26:37.344Z,55.70
2022-12-20T04:29:04.368Z,63.00
2022-12-20T04:31:31.295Z,57.42
2022-12-20T04:33:58.192Z,62.85
2022-12-20T04:36:25.007Z,53.97
2022-12-20T04:38:52.114Z,51.97
2022-12-20T04:41:24.538Z,56.55
2022-12-20T04:43:53.509Z,67.82
2022-12-20T04:46:21.087Z,53.70
2022-12-20T04:48:59.022Z,72.80
2022-12-20T04:51:27.873Z,58.25
2022-12-20T04:53:55.692Z,74.80
2022-12-20T04:56:31.526Z,69.57
2022-12-20T04:58:59.485Z,67.60
2022-12-20T05:01:26.757Z,67.40
2022-12-20T05:03:53.707Z,69.40
2022-12-20T05:06:20.533Z,69.07
2022-12-20T05:08:48.200Z,61.50
2022-12-20T05:11:15.259Z,57.00
2022-12-20T05:13:42.225Z,91.38
2022-12-20T05:16:09.171Z,66.32
2022-12-20T05:18:36.088Z,68.00
2022-12-20T05:21:22.005Z,75.63
2022-12-20T05:24:07.451Z,68.22
2022-12-20T05:26:36.611Z,71.45
2022-12-20T05:29:04.401Z,58.88
2022-12-20T05:31:31.913Z,65.30
2022-12-20T05:33:58.864Z,56.75
2022-12-20T05:36:25.649Z,59.55
2022-12-20T05:38:55.386Z,54.90
2022-12-20T05:41:25.298Z,55.25
2022-12-20T05:43:52.392Z,54.15
2022-12-20T05:46:19.166Z,59.42
2022-12-20T05:48:45.992Z,67.13
2022-12-20T05:51:12.779Z,60.22
2022-12-20T05:53:39.491Z,62.42
2022-12-20T05:56:06.522Z,60.22
2022-12-20T05:58:33.802Z,61.03
2022-12-20T06:01:02.680Z,63.15
2022-12-20T06:03:29.571Z,63.97
2022-12-20T06:05:56.554Z,66.47
2022-12-20T06:08:24.559Z,61.97
2022-12-20T06:10:51.425Z,63.47
2022-12-20T06:13:18.786Z,85.57
2022-12-20T06:15:45.615Z,60.35
2022-12-20T06:18:12.577Z,59.70
2022-12-20T06:20:39.618Z,56.25
2022-12-20T06:23:07.299Z,57.40
2022-12-20T06:25:34.232Z,67.53
2022-12-20T06:28:01.641Z,61.78
2022-12-20T06:30:33.553Z,67.60
2022-12-20T06:33:01.490Z,84.25
2022-12-20T06:35:28.911Z,68.32
2022-12-20T06:37:55.842Z,61.90
2022-12-20T06:40:23.037Z,72.40
2022-12-20T06:42:52.742Z,59.70
2022-12-20T06:45:19.510Z,64.07
2022-12-20T06:47:46.318Z,68.47
2022-12-20T06:50:13.206Z,73.13
2022-12-20T06:52:39.995Z,65.95
2022-12-20T06:55:07.120Z,70.72
2022-12-20T06:57:33.911Z,64.95
2022-12-20T07:00:00.697Z,75.28
2022-12-20T07:02:28.204Z,70.72
2022-12-20T07:04:55.619Z,73.38
2022-12-20T07:07:22.723Z,62.22
2022-12-20T07:09:49.470Z,74.38
2022-12-20T07:12:16.313Z,58.67
2022-12-20T07:14:43.133Z,84.85
2022-12-20T07:17:10.645Z,58.58
2022-12-20T07:19:37.674Z,59.47
2022-12-20T07:22:05.538Z,58.30
2022-12-20T07:24:32.926Z,61.45
2022-12-20T07:26:59.768Z,63.70
2022-12-20T07:29:26.599Z,66.07
2022-12-20T07:31:53.584Z,65.82
2022-12-20T07:34:21.013Z,60.72
2022-12-20T07:36:48.063Z,59.22
2022-12-20T07:39:14.843Z,50.47
2022-12-20T07:41:41.881Z,57.20
2022-12-20T07:44:08.631Z,60.33
2022-12-20T07:46:35.460Z,56.08
2022-12-20T07:49:02.311Z,55.55
2022-12-20T07:51:34.980Z,54.08
2022-12-20T07:54:33.486Z,54.67
2022-12-20T07:57:05.723Z,56.67
2022-12-20T07:59:39.827Z,58.67
2022-12-20T08:02:09.348Z,57.15
2022-12-20T08:04:36.277Z,59.83
2022-12-20T08:07:03.662Z,52.55
2022-12-20T08:09:35.147Z,60.33
2022-12-20T08:12:02.160Z,57.58
2022-12-20T08:14:29.073Z,54.95
2022-12-20T08:16:55.961Z,55.25
2022-12-20T08:19:28.357Z,59.97
2022-12-20T08:21:58.816Z,57.53
2022-12-20T08:24:25.606Z,52.45
2022-12-20T08:26:52.459Z,57.10
2022-12-20T08:29:19.221Z,55.22
2022-12-20T08:31:50.106Z,53.92
2022-12-20T08:34:18.067Z,53.30
2022-12-20T08:36:44.823Z,52.00
2022-12-20T08:39:11.678Z,50.45
2022-12-20T08:41:38.513Z,51.40
2022-12-20T08:44:07.119Z,54.67
2022-12-20T08:46:34.301Z,47.92
2022-12-20T08:49:01.107Z,44.38
2022-12-20T08:51:29.232Z,52.30
2022-12-20T08:53:56.227Z,49.83
2022-12-20T08:56:23.183Z,55.35
2022-12-20T08:58:50.005Z,50.05
2022-12-20T09:01:19.077Z,53.08
2022-12-20T09:03:46.579Z,59.00
2022-12-20T09:06:16.026Z,55.92
2022-12-20T09:08:42.908Z,51.67
2022-12-20T09:11:19.168Z,55.08
2022-12-20T09:13:48.161Z,54.25
2022-12-20T09:16:16.922Z,52.92
2022-12-20T09:18:44.233Z,50.78
2022-12-20T09:21:11.653Z,50.70
2022-12-20T09:23:40.064Z,52.20
2022-12-20T09:26:11.056Z,49.90
2022-12-20T09:28:38.201Z,46.73
2022-12-20T09:31:07.484Z,47.55
2022-12-20T09:33:35.446Z,47.33
2022-12-20T09:36:02.923Z,45.45
2022-12-20T09:38:32.133Z,53.17
2022-12-20T09:41:02.800Z,49.38
2022-12-20T09:43:30.353Z,53.50
2022-12-20T09:46:00.281Z,53.78
2022-12-20T09:48:38.616Z,53.65
2022-12-20T09:51:24.109Z,50.58
2022-12-20T09:53:56.675Z,48.25
2022-12-20T09:56:55.817Z,54.88
2022-12-20T09:59:22.629Z,52.30
2022-12-20T10:01:50.461Z,61.72
2022-12-20T10:04:25.179Z,51.80
2022-12-20T10:07:19.477Z,44.28
2022-12-20T10:10:37.008Z,47.17
2022-12-20T10:13:29.698Z,47.80
2022-12-20T10:16:12.265Z,47.22
2022-12-20T10:18:55.064Z,47.90
2022-12-20T10:21:36.902Z,42.40
2022-12-20T10:24:11.315Z,52.10
2022-12-20T10:26:38.064Z,48.15
2022-12-20T10:29:04.866Z,49.50
2022-12-20T10:31:31.712Z,45.30
2022-12-20T10:33:58.492Z,50.95
2022-12-20T10:36:31.057Z,47.30
2022-12-20T10:39:02.159Z,50.35
2022-12-20T10:41:54.575Z,45.25
2022-12-20T10:44:30.781Z,45.30
2022-12-20T10:46:59.799Z,55.08
2022-12-20T10:49:34.132Z,67.25
2022-12-20T10:52:13.221Z,51.78
2022-12-20T10:54:50.192Z,57.72
2022-12-20T10:57:29.982Z,51.85
2022-12-20T11:00:05.847Z,52.00
2022-12-20T11:02:41.311Z,45.13
2022-12-20T11:05:12.302Z,49.80
2022-12-20T11:10:47.610Z,53.90
2022-12-20T11:13:26.097Z,54.03
2022-12-20T11:15:57.293Z,56.50
2022-12-20T11:18:29.864Z,50.90
2022-12-20T11:23:41.809Z,49.97
2022-12-20T11:26:19.262Z,48.25
2022-12-20T11:28:58.169Z,53.00
2022-12-20T11:32:08.716Z,50.83
2022-12-20T11:34:53.017Z,49.60
2022-12-20T11:37:39.396Z,52.33
2022-12-20T11:40:20.320Z,50.10
2022-12-20T11:42:55.419Z,46.20
2022-12-20T11:45:59.178Z,52.42
2022-12-20T11:48:39.021Z,54.90
2022-12-20T11:51:26.856Z,51.30
2022-12-20T11:54:05.612Z,47.83
2022-12-20T11:56:44.578Z,49.03
2022-12-20T11:59:26.939Z,47.30
2022-12-20T12:02:15.144Z,52.83
2022-12-20T12:04:46.227Z,52.33
2022-12-20T12:07:18.825Z,54.80
2022-12-20T12:09:59.154Z,53.97
2022-12-20T12:12:38.276Z,56.17
2022-12-20T12:15:23.850Z,54.35
2022-12-20T12:18:05.017Z,54.33
2022-12-20T12:21:09.473Z,60.90
2022-12-20T12:23:55.605Z,53.20
2022-12-20T12:26:31.009Z,53.90
2022-12-20T12:29:02.233Z,56.22
2022-12-20T12:31:37.251Z,54.47
2022-12-20T12:34:35.274Z,52.08
2022-12-20T12:37:20.824Z,59.67
2022-12-20T12:40:18.483Z,54.67
2022-12-20T12:43:06.404Z,53.90
2022-12-20T12:45:51.235Z,52.13
2022-12-20T12:48:39.853Z,51.10
2022-12-20T12:51:07.703Z,52.13
2022-12-20T12:53:43.523Z,50.95
2022-12-20T12:56:45.854Z,54.10
2022-12-20T12:59:13.135Z,50.80
2022-12-20T13:02:05.908Z,55.45
2022-12-20T13:05:25.860Z,54.17
2022-12-20T13:07:53.330Z,52.63
2022-12-20T13:10:20.258Z,54.47
2022-12-20T13:12:48.665Z,53.33
2022-12-20T13:15:21.646Z,51.30
2022-12-20T13:18:17.159Z,52.38
2022-12-20T13:21:37.257Z,52.53
2022-12-20T13:24:29.153Z,50.97
2022-12-20T13:27:03.398Z,52.97
2022-12-20T13:29:36.676Z,50.33
2022-12-20T13:32:23.548Z,51.97
2022-12-20T13:34:56.744Z,51.90
2022-12-20T13:37:59.271Z,59.25
2022-12-20T13:40:49.344Z,60.33
2022-12-20T13:43:19.083Z,46.28
2022-12-20T13:45:53.095Z,54.30
2022-12-20T13:48:26.331Z,52.83
2022-12-20T13:50:56.058Z,53.15
2022-12-20T13:53:27.633Z,54.60
2022-12-20T13:55:55.372Z,53.90
2022-12-20T13:58:26.087Z,59.50
2022-12-20T14:00:54.244Z,57.42
2022-12-20T14:03:30.538Z,63.13
2022-12-20T14:06:03.977Z,57.78
2022-12-20T14:08:38.563Z,59.22
2022-12-20T14:11:15.781Z,62.47
2022-12-20T14:13:42.977Z,71.88
2022-12-20T14:16:20.324Z,66.13
2022-12-20T14:18:57.233Z,69.35
2022-12-20T14:21:25.540Z,66.25
2022-12-20T14:23:55.525Z,58.30
2022-12-20T14:26:29.310Z,59.67
2022-12-20T14:29:01.492Z,55.45
2022-12-20T14:31:40.774Z,57.00
2022-12-20T14:34:10.783Z,62.33
2022-12-20T14:36:45.895Z,63.13
2022-12-20T14:39:26.227Z,67.22
2022-12-20T14:42:03.226Z,65.47
2022-12-20T14:44:31.618Z,73.25
2022-12-20T14:47:24.653Z,62.95
2022-12-20T14:50:04.318Z,60.28
2022-12-20T14:52:39.008Z,65.35
2022-12-20T14:55:14.481Z,56.55
2022-12-20T14:57:51.996Z,58.38
2022-12-20T15:00:18.829Z,63.05
2022-12-20T15:02:45.895Z,59.05
2022-12-20T15:05:35.336Z,60.03
2022-12-20T15:08:13.934Z,65.22
2022-12-20T15:10:43.046Z,70.50
2022-12-20T15:13:14.502Z,67.43
2022-12-20T15:15:45.327Z,72.13
2022-12-20T15:18:17.791Z,80.15
2022-12-20T15:20:47.659Z,64.95
2022-12-20T15:23:17.149Z,71.90
2022-12-20T15:25:45.275Z,67.85
2022-12-20T15:28:21.343Z,65.75
2022-12-20T15:30:49.541Z,66.35
2022-12-20T15:33:25.931Z,110.30
2022-12-20T15:35:53.366Z,75.65
2022-12-20T15:38:40.655Z,129.52
2022-12-20T15:41:18.925Z,97.30
2022-12-20T15:43:46.095Z,97.38
2022-12-20T15:46:13.303Z,149.32
2022-12-20T15:48:40.227Z,92.18
2022-12-20T15:51:28.139Z,81.97
2022-12-20T15:53:55.292Z,78.05
2022-12-20T15:56:25.566Z,99.05
2022-12-20T15:58:55.079Z,89.35
2022-12-20T16:01:27.378Z,65.00
2022-12-20T16:03:54.577Z,70.05
2022-12-20T16:06:21.497Z,101.65
2022-12-20T16:08:48.309Z,73.07
2022-12-20T16:11:21.619Z,69.35
2022-12-20T16:13:49.245Z,75.07
2022-12-20T16:16:24.437Z,66.05
2022-12-20T16:18:53.807Z,73.30
2022-12-20T16:21:26.072Z,83.30
2022-12-20T16:23:54.110Z,72.30
2022-12-20T16:26:23.427Z,67.68
2022-12-20T16:28:51.735Z,70.50
2022-12-20T16:31:34.677Z,68.55
2022-12-20T16:34:05.457Z,67.55
2022-12-20T16:36:33.361Z,76.15
2022-12-20T16:39:00.418Z,73.90
2022-12-20T16:41:29.912Z,67.32
2022-12-20T16:43:59.410Z,71.32
2022-12-20T16:46:30.133Z,66.43
2022-12-20T16:48:58.895Z,72.60
2022-12-20T16:51:39.808Z,75.63
2022-12-20T16:54:19.779Z,64.80
2022-12-20T16:56:48.364Z,70.25
2022-12-20T16:59:23.139Z,127.00
2022-12-20T17:01:53.404Z,67.20
2022-12-20T17:04:21.415Z,61.80
2022-12-20T17:06:48.891Z,70.20
2022-12-20T17:09:16.327Z,67.57
2022-12-20T17:11:43.469Z,83.07
2022-12-20T17:14:13.107Z,77.18
2022-12-20T17:16:40.968Z,65.07
2022-12-20T17:19:09.131Z,65.07
2022-12-20T17:24:23.505Z,65.50
2022-12-20T17:26:50.806Z,88.32
2022-12-20T17:29:20.842Z,63.58
2022-12-20T17:31:48.458Z,73.55
2022-12-20T17:34:26.714Z,84.50
2022-12-20T17:36:56.160Z,90.72
2022-12-20T17:39:24.314Z,87.97
2022-12-20T17:41:53.023Z,83.97
2022-12-20T17:44:27.785Z,74.20
2022-12-20T17:46:56.123Z,72.47
2022-12-20T17:49:23.469Z,77.03
2022-12-20T17:51:51.638Z,76.03
2022-12-20T17:54:26.491Z,66.97
2022-12-20T17:56:53.826Z,69.47
2022-12-20T17:59:22.367Z,72.00
2022-12-20T18:01:49.546Z,70.75
2022-12-20T18:04:17.101Z,75.40
2022-12-20T18:06:45.533Z,74.72
2022-12-20T18:09:20.997Z,73.07
2022-12-20T18:11:48.063Z,69.68
2022-12-20T18:14:15.327Z,69.55
2022-12-20T18:16:42.339Z,79.50
2022-12-20T18:19:17.909Z,71.55
2022-12-20T18:21:45.540Z,77.18
2022-12-20T18:24:14.300Z,76.53
2022-12-20T18:26:45.252Z,74.53
2022-12-20T18:29:12.106Z,76.43
2022-12-20T18:31:39.109Z,78.55
2022-12-20T18:34:06.588Z,79.25
2022-12-20T18:36:36.648Z,75.97
2022-12-20T18:39:06.861Z,71.63
2022-12-20T18:41:34.615Z,75.13
2022-12-20T18:44:04.199Z,74.88
2022-12-20T18:46:31.037Z,74.80
2022-12-20T18:49:01.712Z,70.70
2022-12-20T18:51:31.587Z,72.18
2022-12-20T18:53:59.920Z,71.47
2022-12-20T18:56:30.913Z,72.85
2022-12-20T18:59:04.496Z,82.53
2022-12-20T19:01:37.750Z,77.80
2022-12-20T19:04:06.116Z,76.70
2022-12-20T19:06:33.291Z,77.85
2022-12-20T19:09:01.666Z,74.00
2022-12-20T19:11:29.787Z,73.53
2022-12-20T19:13:57.006Z,81.50
2022-12-20T19:16:26.434Z,75.95
2022-12-20T19:19:11.862Z,93.72
2022-12-20T19:21:41.590Z,97.82
2022-12-20T19:24:12.797Z,101.47
2022-12-20T19:30:34.841Z,89.43
2022-12-20T19:34:35.658Z,90.85
2022-12-20T19:36:43.055Z,90.78
2022-12-20T19:50:02.519Z,89.43
2022-12-20T19:54:49.878Z,84.05
2022-12-20T20:01:40.748Z,92.25
2022-12-20T20:04:10.017Z,87.10
2022-12-20T20:06:42.828Z,88.53
2022-12-20T20:09:10.323Z,89.75
2022-12-20T20:12:15.626Z,86.10
2022-12-20T20:14:42.721Z,90.18
2022-12-20T20:17:10.230Z,87.95
2022-12-20T20:19:38.022Z,89.45
2022-12-20T20:22:07.335Z,104.72
2022-12-20T20:30:42.410Z,89.05
2022-12-20T20:36:34.186Z,94.18
2022-12-20T20:39:01.075Z,77.22
2022-12-20T20:41:47.837Z,89.78
2022-12-20T20:44:14.747Z,98.72
2022-12-20T20:48:09.996Z,87.30
2022-12-20T20:50:11.010Z,96.97
2022-12-20T20:52:49.258Z,98.75
2022-12-20T20:55:19.153Z,90.13
2022-12-20T20:57:46.156Z,86.28
2022-12-20T21:00:13.413Z,86.13
2022-12-20T21:02:42.370Z,84.82
2022-12-20T21:06:00.130Z,91.97
2022-12-20T21:07:57.012Z,82.70
2022-12-20T21:10:27.022Z,86.20
2022-12-20T21:12:54.083Z,87.47
2022-12-20T21:15:23.038Z,96.85
2022-12-20T21:17:50.640Z,81.93
2022-12-20T21:20:22.041Z,79.95
2022-12-20T21:22:53.524Z,86.03
2022-12-20T21:25:22.400Z,93.30
2022-12-20T21:27:56.106Z,86.78
2022-12-20T21:30:28.275Z,89.88
2022-12-20T21:33:02.990Z,81.78
2022-12-20T21:36:05.658Z,76.97
2022-12-20T21:38:35.541Z,85.38
2022-12-20T21:41:19.917Z,81.07
2022-12-20T21:43:46.799Z,74.40
2022-12-20T21:57:17.847Z,108.32
2022-12-20T21:59:50.226Z,78.85
2022-12-20T22:02:24.029Z,87.18
2022-12-20T22:04:50.850Z,75.38
2022-12-20T22:07:20.705Z,80.55
2022-12-20T22:09:47.438Z,73.25
2022-12-20T22:12:16.712Z,73.78
2022-12-20T22:14:43.528Z,79.90
2022-12-20T22:17:35.669Z,87.20
2022-12-20T22:20:00.810Z,86.13
2022-12-20T22:22:27.655Z,72.22
2022-12-20T22:24:54.737Z,73.20
2022-12-20T22:27:21.618Z,97.82
2022-12-20T22:29:48.439Z,74.57
2022-12-20T22:32:16.291Z,90.80
2022-12-20T22:34:48.084Z,80.78
2022-12-20T22:37:15.009Z,130.77
2022-12-20T22:39:43.942Z,87.90
2022-12-20T22:42:10.784Z,78.03
2022-12-20T22:44:40.949Z,74.68
2022-12-20T22:47:11.026Z,74.45
2022-12-20T22:50:05.759Z,78.85
2022-12-20T22:52:51.763Z,76.05
2022-12-20T22:55:18.774Z,81.13
2022-12-20T22:57:45.567Z,79.53
2022-12-20T23:00:13.195Z,74.15
2022-12-20T23:02:43.121Z,82.28
2022-12-20T23:05:09.954Z,79.97
2022-12-20T23:07:40.965Z,82.00
2022-12-20T23:10:28.219Z,76.30
2022-12-20T23:13:13.679Z,67.45
2022-12-20T23:15:40.447Z,71.78
2022-12-20T23:18:07.260Z,85.28
2022-12-20T23:20:52.513Z,75.53
2022-12-20T23:23:19.292Z,81.50
2022-12-20T23:25:46.115Z,80.97
2022-12-20T23:28:12.914Z,76.50
2022-12-20T23:30:39.628Z,78.13
2022-12-20T23:33:06.360Z,87.22
2022-12-20T23:35:33.146Z,76.40
2022-12-20T23:37:59.947Z,84.72
2022-12-20T23:40:26.662Z,86.00
2022-12-20T23:42:54.560Z,79.20
2022-12-20T23:45:21.484Z,76.32
2022-12-20T23:47:48.287Z,74.10
2022-12-20T23:50:15.071Z,78.90
2022-12-20T23:52:41.908Z,75.50
2022-12-20T23:55:09.118Z,72.22
2022-12-20T23:57:36.156Z,76.75
